IDOT Bid Items (Switch to Illinois Tollway)

Show/Hide column: Pay Item # - Pay Item Description - Unit - County - Dist - Contract - Date
Pay Item # Pay Item Description Unit Quantity Award Unit Price County Dist Contract Date Bid Unit Prices:
40600990 TEMPORARY RAMP SQ YD 195 $36.19 MCLEAN 5 91637 03/08/2024 $60.00, $36.19
40600990 TEMPORARY RAMP SQ YD 402 $15.00 BUREAU 3 66M96 03/08/2024 $15.00
40600990 TEMPORARY RAMP SQ YD 134 $25.00 CRAWFORD 7 95948 03/08/2024 $25.00
40600990 TEMPORARY RAMP SQ YD 950 $22.50 DEKALB 3 87833 03/08/2024 $22.50, $0.01
40600990 TEMPORARY RAMP SQ YD 33 $24.48 BOONE 2 85754 03/08/2024 $15.00, $24.48
40600990 TEMPORARY RAMP SQ YD 60 $0.01 BOND 8 76T23 03/08/2024 $0.01, $0.01
40600990 TEMPORARY RAMP SQ YD 251 $0.01 ST CLAIR 8 76H41 03/08/2024 $0.02, $0.01
40600990 TEMPORARY RAMP SQ YD 64 $1.00 ADAMS 6 93816 03/08/2024 $1.00
40600990 TEMPORARY RAMP SQ YD 159 $25.00 BUREAU 3 87811 03/08/2024 $25.00
40600990 TEMPORARY RAMP SQ YD 546 $0.01 IROQUOIS 3 66H62 03/08/2024 $0.01
40600990 TEMPORARY RAMP SQ YD 2,311 $15.00 LASALLE 3 66M56 03/08/2024 $15.00
40600990 TEMPORARY RAMP SQ YD 376 $22.40 DEWITT 5 70901 03/08/2024 $22.40
40600990 TEMPORARY RAMP SQ YD 120 $31.06 SANGAMON 6 72159 03/08/2024 $31.06, $29.28
40600990 TEMPORARY RAMP SQ YD 369 $46.27 FRANKLIN 9 78A45 03/08/2024 $46.27, $25.00
40600990 TEMPORARY RAMP SQ YD 426 $70.17 SALINE 9 78A37 03/08/2024 $70.17, $25.00
40600990 TEMPORARY RAMP SQ YD 260 $20.31 JEFFERSON 9 78A34 03/08/2024 $20.31
40600990 TEMPORARY RAMP SQ YD 350 $37.80 CRAWFORD 7 74980 03/08/2024 $37.80
40600990 TEMPORARY RAMP SQ YD 37 $47.60 SCOTT 6 72724 03/08/2024 $47.60
40600990 TEMPORARY RAMP SQ YD 833 $40.73 MCLEAN 5 70855 03/08/2024 $40.73
40600990 TEMPORARY RAMP SQ YD 956 $44.50 MCLEAN 5 91619 03/08/2024 $44.50
  • Showing 1 to 20 of 1052 entries.